Time,TemperatureF,DewpointF,PressureIn,WindDirection,WindDirectionDegrees,WindSpeedMPH,WindSpeedGustMPH,Humidity,HourlyPrecipIn,Conditions,Clouds,dailyrainin,SoftwareType,DateUTC
2013-03-30 00:00:00,36.0,30.7,29.74,SSE,155,1.0,1.0,81,0.00,,,0.02,Wunderground v.1.15,2013-03-30 04:00:00,
2013-03-30 00:05:00,36.0,30.4,29.74,SSE,155,1.0,1.0,80,0.00,,,0.00,Wunderground v.1.15,2013-03-30 04:05:00,
2013-03-30 00:10:00,35.9,30.3,29.74,SSE,155,0.0,0.0,80,0.00,,,0.00,Wunderground v.1.15,2013-03-30 04:10:00,
2013-03-30 00:15:00,35.9,30.3,29.74,SW,227,1.0,1.0,80,0.00,,,0.00,Wunderground v.1.15,2013-03-30 04:15:00,
2013-03-30 00:20:00,35.9,30.3,29.74,WNW,302,1.0,4.0,80,0.00,,,0.00,Wunderground v.1.15,2013-03-30 04:20:00,
2013-03-30 00:30:00,36.1,30.2,29.74,NNW,335,1.0,1.0,79,0.00,,,0.00,Wunderground v.1.15,2013-03-30 04:30:00,
2013-03-30 00:35:00,36.2,30.3,29.74,NW,321,2.0,4.0,79,0.00,,,0.00,Wunderground v.1.15,2013-03-30 04:35:00,
2013-03-30 00:40:00,36.3,30.1,29.74,WNW,298,2.0,4.0,78,0.00,,,0.00,Wunderground v.1.15,2013-03-30 04:40:00,
2013-03-30 00:50:00,36.3,30.1,29.74,NW,318,4.0,7.0,78,0.00,,,0.00,Wunderground v.1.15,2013-03-30 04:50:00,
2013-03-30 00:55:00,36.3,30.1,29.74,NW,325,5.0,7.0,78,0.00,,,0.00,Wunderground v.1.15,2013-03-30 04:55:00,
2013-03-30 01:00:00,36.3,30.1,29.73,NW,317,6.0,12.0,78,0.00,,,0.00,Wunderground v.1.15,2013-03-30 05:00:00,
2013-03-30 01:05:00,36.2,30.0,29.74,NW,311,7.0,12.0,78,0.00,,,0.00,Wunderground v.1.15,2013-03-30 05:05:00,
2013-03-30 01:10:00,36.2,30.0,29.74,WNW,300,6.0,6.0,78,0.00,,,0.00,Wunderground v.1.15,2013-03-30 05:10:00,
2013-03-30 01:20:00,36.1,29.9,29.74,NW,324,6.0,7.0,78,0.00,,,0.00,Wunderground v.1.15,2013-03-30 05:20:00,
2013-03-30 01:30:00,36.0,29.5,29.73,WNW,302,6.0,6.0,77,0.00,,,0.00,Wunderground v.1.15,2013-03-30 05:30:00,
2013-03-30 01:35:00,36.0,29.5,29.73,NW,305,6.0,9.0,77,0.00,,,0.00,Wunderground v.1.15,2013-03-30 05:35:00,
2013-03-30 01:40:00,36.0,29.2,29.73,WNW,294,6.0,6.0,76,0.00,,,0.00,Wunderground v.1.15,2013-03-30 05:40:00,
2013-03-30 01:50:00,35.9,29.1,29.73,WNW,298,5.0,5.0,76,0.00,,,0.00,Wunderground v.1.15,2013-03-30 05:50:00,
2013-03-30 02:00:00,35.9,29.1,29.73,NW,305,6.0,8.0,76,0.00,,,0.00,Wunderground v.1.15,2013-03-30 06:00:00,
2013-03-30 02:05:00,36.0,29.2,29.73,NW,311,7.0,8.0,76,0.00,,,0.00,Wunderground v.1.15,2013-03-30 06:05:00,
2013-03-30 02:15:00,35.9,28.7,29.73,WNW,303,6.0,7.0,75,0.00,,,0.00,Wunderground v.1.15,2013-03-30 06:15:00,
2013-03-30 02:25:00,35.9,28.7,29.73,North,351,6.0,6.0,75,0.00,,,0.00,Wunderground v.1.15,2013-03-30 06:25:00,
2013-03-30 02:30:00,35.8,28.6,29.73,NW,323,6.0,6.0,75,0.00,,,0.00,Wunderground v.1.15,2013-03-30 06:30:00,
2013-03-30 02:40:00,35.7,28.6,29.73,NW,309,5.0,5.0,75,0.00,,,0.00,Wunderground v.1.15,2013-03-30 06:40:00,
2013-03-30 02:45:00,35.6,28.5,29.73,West,281,5.0,5.0,75,0.00,,,0.00,Wunderground v.1.15,2013-03-30 06:45:00,
2013-03-30 02:55:00,35.5,28.4,29.73,NW,320,4.0,4.0,75,0.00,,,0.00,Wunderground v.1.15,2013-03-30 06:55:00,
2013-03-30 03:00:00,35.4,27.9,29.73,NW,324,4.0,5.0,74,0.00,,,0.00,Wunderground v.1.15,2013-03-30 07:00:00,
2013-03-30 03:10:00,35.4,27.9,29.73,WNW,286,4.0,4.0,74,0.00,,,0.00,Wunderground v.1.15,2013-03-30 07:10:00,
2013-03-30 03:20:00,35.3,27.8,29.73,West,267,5.0,5.0,74,0.00,,,0.00,Wunderground v.1.15,2013-03-30 07:20:00,
2013-03-30 03:25:00,35.2,27.7,29.73,WNW,301,5.0,5.0,74,0.00,,,0.00,Wunderground v.1.15,2013-03-30 07:25:00,
2013-03-30 03:35:00,35.4,27.9,29.73,NW,323,5.0,6.0,74,0.00,,,0.00,Wunderground v.1.15,2013-03-30 07:35:00,
2013-03-30 03:40:00,35.3,27.5,29.73,West,265,4.0,4.0,73,0.00,,,0.00,Wunderground v.1.15,2013-03-30 07:40:00,
2013-03-30 03:50:00,35.3,27.5,29.73,WNW,291,5.0,5.0,73,0.00,,,0.00,Wunderground v.1.15,2013-03-30 07:50:00,
2013-03-30 04:00:00,35.1,27.0,29.73,NW,315,4.0,4.0,72,0.00,,,0.00,Wunderground v.1.15,2013-03-30 08:00:00,
2013-03-30 04:05:00,35.1,27.0,29.73,WNW,296,3.0,4.0,72,0.00,,,0.00,Wunderground v.1.15,2013-03-30 08:05:00,
2013-03-30 04:15:00,34.9,26.8,29.73,NW,316,3.0,3.0,72,0.00,,,0.00,Wunderground v.1.15,2013-03-30 08:15:00,
2013-03-30 04:20:00,35.1,27.0,29.73,NW,309,4.0,4.0,72,0.00,,,0.00,Wunderground v.1.15,2013-03-30 08:20:00,
2013-03-30 04:25:00,35.1,27.0,29.73,NW,316,4.0,7.0,72,0.00,,,0.00,Wunderground v.1.15,2013-03-30 08:25:00,
2013-03-30 04:30:00,35.2,27.1,29.73,NW,320,4.0,4.0,72,0.00,,,0.00,Wunderground v.1.15,2013-03-30 08:30:00,
2013-03-30 04:35:00,35.2,27.1,29.73,NW,309,4.0,4.0,72,0.00,,,0.00,Wunderground v.1.15,2013-03-30 08:35:00,
2013-03-30 04:45:00,35.1,26.6,29.73,North,360,3.0,4.0,71,0.00,,,0.00,Wunderground v.1.15,2013-03-30 08:45:00,
2013-03-30 04:50:00,35.1,27.0,29.73,North,5,2.0,2.0,72,0.00,,,0.00,Wunderground v.1.15,2013-03-30 08:50:00,
2013-03-30 04:55:00,34.9,26.8,29.73,WSW,250,1.0,2.0,72,0.00,,,0.00,Wunderground v.1.15,2013-03-30 08:55:00,
2013-03-30 05:00:00,34.9,26.8,29.73,WNW,286,1.0,1.0,72,0.00,,,0.00,Wunderground v.1.15,2013-03-30 09:00:00,
2013-03-30 05:10:00,34.7,26.6,29.74,WNW,287,2.0,2.0,72,0.00,,,0.00,Wunderground v.1.15,2013-03-30 09:10:00,
2013-03-30 05:15:00,34.7,26.3,29.74,West,262,2.0,3.0,71,0.00,,,0.00,Wunderground v.1.15,2013-03-30 09:15:00,
2013-03-30 05:20:00,34.5,26.7,29.74,WNW,300,1.0,1.0,73,0.00,,,0.00,Wunderground v.1.15,2013-03-30 09:20:00,
2013-03-30 05:30:00,34.0,26.9,29.74,SE,125,1.0,2.0,75,0.00,,,0.00,Wunderground v.1.15,2013-03-30 09:30:00,
2013-03-30 05:40:00,33.4,26.6,29.74,SE,124,1.0,1.0,76,0.00,,,0.00,Wunderground v.1.15,2013-03-30 09:40:00,
2013-03-30 05:50:00,32.8,26.7,29.74,SE,124,0.0,0.0,78,0.00,,,0.00,Wunderground v.1.15,2013-03-30 09:50:00,
2013-03-30 05:55:00,32.5,26.4,29.74,SE,124,0.0,0.0,78,0.00,,,0.00,Wunderground v.1.15,2013-03-30 09:55:00,
2013-03-30 06:05:00,32.2,26.4,29.75,SE,124,0.0,0.0,79,0.00,,,0.00,Wunderground v.1.15,2013-03-30 10:05:00,
2013-03-30 06:15:00,31.9,26.1,29.75,SE,124,0.0,0.0,79,0.00,,,0.00,Wunderground v.1.15,2013-03-30 10:15:00,
2013-03-30 06:20:00,31.7,25.9,29.75,SE,124,0.0,0.0,79,0.00,,,0.00,Wunderground v.1.15,2013-03-30 10:20:00,
2013-03-30 06:30:00,31.5,26.0,29.75,SE,124,0.0,0.0,80,0.00,,,0.00,Wunderground v.1.15,2013-03-30 10:30:00,
2013-03-30 06:40:00,31.5,25.7,29.75,SE,124,0.0,1.0,79,0.00,,,0.00,Wunderground v.1.15,2013-03-30 10:40:00,
2013-03-30 06:45:00,31.5,26.0,29.75,SE,124,0.0,1.0,80,0.00,,,0.00,Wunderground v.1.15,2013-03-30 10:45:00,
2013-03-30 06:50:00,31.5,26.0,29.76,SE,124,0.0,0.0,80,0.00,,,0.00,Wunderground v.1.15,2013-03-30 10:50:00,
2013-03-30 07:00:00,31.8,26.3,29.76,SE,124,0.0,0.0,80,0.00,,,0.00,Wunderground v.1.15,2013-03-30 11:00:00,
2013-03-30 07:05:00,32.2,26.4,29.76,SE,124,1.0,1.0,79,0.00,,,0.00,Wunderground v.1.15,2013-03-30 11:05:00,
2013-03-30 07:10:00,32.5,26.4,29.76,SE,124,2.0,3.0,78,0.00,,,0.00,Wunderground v.1.15,2013-03-30 11:10:00,
2013-03-30 07:20:00,33.2,27.1,29.76,SE,124,1.0,1.0,78,0.00,,,0.00,Wunderground v.1.15,2013-03-30 11:20:00,
2013-03-30 07:25:00,33.4,26.6,29.76,ESE,122,1.0,1.0,76,0.00,,,0.00,Wunderground v.1.15,2013-03-30 11:25:00,
2013-03-30 07:30:00,33.8,27.0,29.76,ESE,121,1.0,1.0,76,0.00,,,0.00,Wunderground v.1.15,2013-03-30 11:30:00,
2013-03-30 07:35:00,34.1,27.3,29.77,ESE,122,0.0,1.0,76,0.00,,,0.00,Wunderground v.1.15,2013-03-30 11:35:00,
2013-03-30 07:45:00,34.9,27.1,29.77,ESE,122,1.0,1.0,73,0.00,,,0.00,Wunderground v.1.15,2013-03-30 11:45:00,
2013-03-30 07:50:00,35.2,27.7,29.77,ESE,121,1.0,3.0,74,0.00,,,0.00,Wunderground v.1.15,2013-03-30 11:50:00,
2013-03-30 07:55:00,35.2,27.1,29.77,ESE,121,2.0,3.0,72,0.00,,,0.00,Wunderground v.1.15,2013-03-30 11:55:00,
2013-03-30 08:00:00,35.3,27.5,29.77,ESE,121,2.0,2.0,73,0.00,,,0.00,Wunderground v.1.15,2013-03-30 12:00:00,
2013-03-30 08:06:00,35.7,28.2,29.77,ESE,121,1.0,2.0,74,0.00,,,0.00,Wunderground v.1.15,2013-03-30 12:06:00,
2013-03-30 08:15:00,36.5,29.3,29.77,ESE,121,1.0,1.0,75,0.00,,,0.00,Wunderground v.1.15,2013-03-30 12:15:00,
2013-03-30 08:20:00,36.7,28.2,29.77,ESE,121,1.0,1.0,71,0.00,,,0.00,Wunderground v.1.15,2013-03-30 12:20:00,
2013-03-30 08:25:00,36.8,28.3,29.77,South,177,1.0,3.0,71,0.00,,,0.00,Wunderground v.1.15,2013-03-30 12:25:00,
2013-03-30 08:35:00,37.0,28.5,29.78,South,177,1.0,1.0,71,0.00,,,0.00,Wunderground v.1.15,2013-03-30 12:35:00,
2013-03-30 08:40:00,37.5,27.5,29.77,NE,37,1.0,3.0,67,0.00,,,0.00,Wunderground v.1.15,2013-03-30 12:40:00,
2013-03-30 08:45:00,37.8,26.3,29.77,WNW,284,2.0,6.0,63,0.00,,,0.00,Wunderground v.1.15,2013-03-30 12:45:00,
2013-03-30 08:50:00,37.7,26.2,29.77,NNW,334,4.0,6.0,63,0.00,,,0.00,Wunderground v.1.15,2013-03-30 12:50:00,
2013-03-30 08:55:00,37.9,26.0,29.77,NW,315,3.0,3.0,62,0.00,,,0.00,Wunderground v.1.15,2013-03-30 12:55:00,
2013-03-30 09:01:00,38.3,26.0,29.77,West,267,3.0,5.0,61,0.00,,,0.00,Wunderground v.1.15,2013-03-30 13:01:00,
2013-03-30 09:10:00,38.7,25.6,29.77,NNW,344,3.0,7.0,59,0.00,,,0.00,Wunderground v.1.15,2013-03-30 13:10:00,
2013-03-30 09:15:00,39.1,25.6,29.77,WNW,302,3.0,3.0,58,0.00,,,0.00,Wunderground v.1.15,2013-03-30 13:15:00,
2013-03-30 09:20:00,39.4,24.6,29.77,NW,306,3.0,3.0,55,0.00,,,0.00,Wunderground v.1.15,2013-03-30 13:20:00,
2013-03-30 09:30:00,40.0,23.8,29.77,NW,306,3.0,7.0,52,0.00,,,0.00,Wunderground v.1.15,2013-03-30 13:30:00,
2013-03-30 09:35:00,40.0,23.8,29.77,NNE,17,4.0,5.0,52,0.00,,,0.00,Wunderground v.1.15,2013-03-30 13:35:00,
2013-03-30 09:40:00,39.8,24.0,29.77,NNW,345,5.0,7.0,53,0.00,,,0.00,Wunderground v.1.15,2013-03-30 13:40:00,
2013-03-30 09:45:00,39.8,24.0,29.78,North,360,5.0,5.0,53,0.00,,,0.00,Wunderground v.1.15,2013-03-30 13:45:00,
2013-03-30 09:55:00,40.1,24.3,29.78,NW,318,5.0,7.0,53,0.00,,,0.00,Wunderground v.1.15,2013-03-30 13:55:00,
2013-03-30 10:05:00,40.3,23.1,29.77,NNW,327,6.0,6.0,50,0.00,,,0.00,Wunderground v.1.15,2013-03-30 14:05:00,
2013-03-30 10:10:00,40.5,23.3,29.77,North,360,4.0,4.0,50,0.00,,,0.00,Wunderground v.1.15,2013-03-30 14:10:00,
2013-03-30 10:15:00,40.6,22.9,29.77,North,355,4.0,5.0,49,0.00,,,0.00,Wunderground v.1.15,2013-03-30 14:15:00,
2013-03-30 10:20:00,40.8,23.6,29.78,WNW,290,5.0,6.0,50,0.00,,,0.00,Wunderground v.1.15,2013-03-30 14:20:00,
2013-03-30 10:26:00,41.0,22.8,29.78,NW,315,5.0,8.0,48,0.00,,,0.00,Wunderground v.1.15,2013-03-30 14:26:00,
2013-03-30 10:35:00,41.0,22.3,29.78,NW,321,7.0,10.0,47,0.00,,,0.00,Wunderground v.1.15,2013-03-30 14:35:00,
2013-03-30 10:45:00,41.8,23.0,29.78,NNW,340,5.0,7.0,47,0.00,,,0.00,Wunderground v.1.15,2013-03-30 14:45:00,
2013-03-30 10:50:00,41.2,20.9,29.78,WNW,302,6.0,10.0,44,0.00,,,0.00,Wunderground v.1.15,2013-03-30 14:50:00,
2013-03-30 11:00:00,41.0,21.3,29.78,NW,315,10.0,14.0,45,0.00,,,0.00,Wunderground v.1.15,2013-03-30 15:00:00,
2013-03-30 11:10:00,41.7,21.9,29.78,NW,304,7.0,16.0,45,0.00,,,0.00,Wunderground v.1.15,2013-03-30 15:10:00,
2013-03-30 11:15:00,41.3,18.2,29.78,NNW,332,9.0,16.0,39,0.00,,,0.00,Wunderground v.1.15,2013-03-30 15:15:00,
2013-03-30 11:20:00,41.3,19.3,29.77,NW,313,11.0,12.0,41,0.00,,,0.00,Wunderground v.1.15,2013-03-30 15:20:00,
2013-03-30 11:30:00,41.6,19.6,29.77,NW,310,8.0,8.0,41,0.00,,,0.00,Wunderground v.1.15,2013-03-30 15:30:00,
2013-03-30 11:35:00,41.7,20.3,29.78,NW,319,8.0,8.0,42,0.00,,,0.00,Wunderground v.1.15,2013-03-30 15:35:00,
2013-03-30 11:40:00,41.8,19.8,29.77,WNW,296,8.0,8.0,41,0.00,,,0.00,Wunderground v.1.15,2013-03-30 15:40:00,
2013-03-30 11:50:00,42.0,16.9,29.77,NW,304,9.0,13.0,36,0.00,,,0.00,Wunderground v.1.15,2013-03-30 15:50:00,
2013-03-30 11:55:00,42.2,19.0,29.77,WNW,303,8.0,13.0,39,0.00,,,0.00,Wunderground v.1.15,2013-03-30 15:55:00,
2013-03-30 12:05:00,42.4,20.9,29.77,NNE,15,8.0,8.0,42,0.00,,,0.00,Wunderground v.1.15,2013-03-30 16:05:00,
2013-03-30 12:15:00,42.5,20.4,29.76,NNW,329,7.0,10.0,41,0.00,,,0.00,Wunderground v.1.15,2013-03-30 16:15:00,
2013-03-30 12:20:00,42.5,20.4,29.77,NW,306,7.0,7.0,41,0.00,,,0.00,Wunderground v.1.15,2013-03-30 16:20:00,
2013-03-30 12:25:00,42.6,19.9,29.76,North,355,7.0,7.0,40,0.00,,,0.00,Wunderground v.1.15,2013-03-30 16:25:00,
2013-03-30 12:35:00,42.3,20.2,29.76,NNW,336,7.0,10.0,41,0.00,,,0.00,Wunderground v.1.15,2013-03-30 16:35:00,
2013-03-30 12:40:00,42.4,19.8,29.76,NW,309,8.0,10.0,40,0.00,,,0.00,Wunderground v.1.15,2013-03-30 16:40:00,
2013-03-30 12:45:00,42.7,18.8,29.76,WNW,300,7.0,10.0,38,0.00,,,0.00,Wunderground v.1.15,2013-03-30 16:45:00,
2013-03-30 12:55:00,42.8,18.3,29.76,WNW,292,8.0,10.0,37,0.00,,,0.00,Wunderground v.1.15,2013-03-30 16:55:00,
2013-03-30 13:00:00,42.6,18.7,29.76,NW,306,9.0,13.0,38,0.00,,,0.00,Wunderground v.1.15,2013-03-30 17:00:00,
2013-03-30 13:05:00,42.3,18.5,29.77,WNW,284,10.0,13.0,38,0.00,,,0.00,Wunderground v.1.15,2013-03-30 17:05:00,
2013-03-30 13:15:00,43.0,19.7,29.76,NNW,334,7.0,7.0,39,0.00,,,0.00,Wunderground v.1.15,2013-03-30 17:15:00,
2013-03-30 13:20:00,43.4,20.7,29.76,NNW,332,8.0,8.0,40,0.00,,,0.00,Wunderground v.1.15,2013-03-30 17:20:00,
2013-03-30 13:25:00,43.0,20.3,29.76,NW,311,7.0,9.0,40,0.00,,,0.00,Wunderground v.1.15,2013-03-30 17:25:00,
2013-03-30 13:30:00,43.2,19.3,29.76,WNW,300,8.0,11.0,38,0.00,,,0.00,Wunderground v.1.15,2013-03-30 17:30:00,
2013-03-30 13:40:00,43.2,19.9,29.76,WNW,300,8.0,11.0,39,0.00,,,0.00,Wunderground v.1.15,2013-03-30 17:40:00,
2013-03-30 13:45:00,43.1,19.2,29.76,NW,308,9.0,12.0,38,0.00,,,0.00,Wunderground v.1.15,2013-03-30 17:45:00,
2013-03-30 13:50:00,43.2,22.2,29.75,NNE,19,8.0,12.0,43,0.00,,,0.00,Wunderground v.1.15,2013-03-30 17:50:00,
2013-03-30 13:55:00,43.5,20.2,29.76,WNW,294,6.0,8.0,39,0.00,,,0.00,Wunderground v.1.15,2013-03-30 17:55:00,
2013-03-30 14:00:00,43.3,16.8,29.75,NNW,344,8.0,8.0,34,0.00,,,0.00,Wunderground v.1.15,2013-03-30 18:00:00,
2013-03-30 14:10:00,43.6,18.4,29.75,NNE,17,7.0,7.0,36,0.00,,,0.00,Wunderground v.1.15,2013-03-30 18:10:00,
2013-03-30 14:15:00,43.8,19.8,29.75,NW,323,6.0,7.0,38,0.00,,,0.00,Wunderground v.1.15,2013-03-30 18:15:00,
2013-03-30 14:20:00,44.2,21.4,29.75,WNW,288,6.0,7.0,40,0.00,,,0.00,Wunderground v.1.15,2013-03-30 18:20:00,
2013-03-30 14:25:00,43.9,18.6,29.75,NW,322,7.0,7.0,36,0.00,,,0.00,Wunderground v.1.15,2013-03-30 18:25:00,
2013-03-30 14:30:00,43.8,19.2,29.74,NNW,332,8.0,12.0,37,0.00,,,0.00,Wunderground v.1.15,2013-03-30 18:30:00,
2013-03-30 14:35:00,43.8,17.9,29.75,NNW,342,7.0,12.0,35,0.00,,,0.00,Wunderground v.1.15,2013-03-30 18:35:00,
2013-03-30 14:41:00,43.8,18.5,29.75,ESE,121,9.0,9.0,36,0.00,,,0.00,Wunderground v.1.15,2013-03-30 18:41:00,
2013-03-30 14:50:00,44.1,16.8,29.74,NW,317,7.0,7.0,33,0.00,,,0.00,Wunderground v.1.15,2013-03-30 18:50:00,
2013-03-30 14:55:00,44.2,18.9,29.74,North,355,7.0,7.0,36,0.00,,,0.00,Wunderground v.1.15,2013-03-30 18:55:00,
2013-03-30 15:00:00,43.8,19.2,29.74,North,355,7.0,7.0,37,0.00,,,0.00,Wunderground v.1.15,2013-03-30 19:00:00,
2013-03-30 15:06:00,44.0,20.0,29.74,North,350,7.0,9.0,38,0.00,,,0.00,Wunderground v.1.15,2013-03-30 19:06:00,
2013-03-30 15:15:00,44.6,19.9,29.75,WNW,296,7.0,12.0,37,0.00,,,0.00,Wunderground v.1.15,2013-03-30 19:15:00,
2013-03-30 15:20:00,44.3,17.0,29.74,NNW,342,8.0,8.0,33,0.00,,,0.00,Wunderground v.1.15,2013-03-30 19:20:00,
2013-03-30 15:30:00,44.2,16.2,29.74,North,11,7.0,8.0,32,0.00,,,0.00,Wunderground v.1.15,2013-03-30 19:30:00,
2013-03-30 15:40:00,44.3,15.5,29.74,NNE,22,7.0,7.0,31,0.00,,,0.00,Wunderground v.1.15,2013-03-30 19:40:00,
2013-03-30 15:45:00,44.6,20.5,29.74,NW,309,6.0,8.0,38,0.00,,,0.00,Wunderground v.1.15,2013-03-30 19:45:00,
2013-03-30 15:55:00,45.1,16.2,29.74,NW,309,6.0,8.0,31,0.00,,,0.00,Wunderground v.1.15,2013-03-30 19:55:00,
2013-03-30 16:05:00,45.4,15.7,29.74,NW,321,6.0,7.0,30,0.00,,,0.00,Wunderground v.1.15,2013-03-30 20:05:00,
2013-03-30 16:10:00,45.2,14.0,29.74,WNW,300,7.0,7.0,28,0.00,,,0.00,Wunderground v.1.15,2013-03-30 20:10:00,
2013-03-30 16:16:00,45.0,13.8,29.74,WNW,300,7.0,7.0,28,0.00,,,0.00,Wunderground v.1.15,2013-03-30 20:16:00,
2013-03-30 16:25:00,44.8,12.8,29.74,WNW,284,7.0,10.0,27,0.00,,,0.00,Wunderground v.1.15,2013-03-30 20:25:00,
2013-03-30 16:30:00,44.8,14.4,29.74,NNE,12,6.0,10.0,29,0.00,,,0.00,Wunderground v.1.15,2013-03-30 20:30:00,
2013-03-30 16:35:00,45.0,13.8,29.74,NW,320,5.0,5.0,28,0.00,,,0.00,Wunderground v.1.15,2013-03-30 20:35:00,
2013-03-30 16:40:00,44.7,14.3,29.74,NE,41,4.0,5.0,29,0.00,,,0.00,Wunderground v.1.15,2013-03-30 20:40:00,
2013-03-30 16:50:00,44.7,14.3,29.74,NNW,330,6.0,8.0,29,0.00,,,0.00,Wunderground v.1.15,2013-03-30 20:50:00,
2013-03-30 17:00:00,44.9,15.3,29.74,NW,316,4.0,6.0,30,0.00,,,0.00,Wunderground v.1.15,2013-03-30 21:00:00,
2013-03-30 17:05:00,44.9,15.3,29.74,NW,311,5.0,6.0,30,0.00,,,0.00,Wunderground v.1.15,2013-03-30 21:05:00,
2013-03-30 17:15:00,44.5,15.7,29.74,NW,315,6.0,6.0,31,0.00,,,0.00,Wunderground v.1.15,2013-03-30 21:15:00,
2013-03-30 17:20:00,44.3,17.0,29.74,NW,321,7.0,9.0,33,0.00,,,0.00,Wunderground v.1.15,2013-03-30 21:20:00,
2013-03-30 17:25:00,44.4,17.1,29.74,WNW,294,7.0,9.0,33,0.00,,,0.00,Wunderground v.1.15,2013-03-30 21:25:00,
2013-03-30 17:30:00,44.5,14.9,29.74,NNW,336,6.0,6.0,30,0.00,,,0.00,Wunderground v.1.15,2013-03-30 21:30:00,
2013-03-30 17:40:00,44.2,15.4,29.74,NNW,345,6.0,6.0,31,0.00,,,0.00,Wunderground v.1.15,2013-03-30 21:40:00,
2013-03-30 17:46:00,44.0,15.3,29.74,NNW,346,5.0,6.0,31,0.00,,,0.00,Wunderground v.1.15,2013-03-30 21:46:00,
2013-03-30 17:55:00,43.6,16.3,29.75,NW,323,6.0,7.0,33,0.00,,,0.00,Wunderground v.1.15,2013-03-30 21:55:00,
2013-03-30 18:05:00,43.1,14.5,29.75,NW,324,7.0,7.0,31,0.00,,,0.00,Wunderground v.1.15,2013-03-30 22:05:00,
2013-03-30 18:15:00,43.0,14.4,29.75,North,5,6.0,6.0,31,0.00,,,0.00,Wunderground v.1.15,2013-03-30 22:15:00,
2013-03-30 18:20:00,42.8,14.2,29.75,NW,314,6.0,8.0,31,0.00,,,0.00,Wunderground v.1.15,2013-03-30 22:20:00,
2013-03-30 18:30:00,42.2,14.4,29.75,NNW,340,6.0,6.0,32,0.00,,,0.00,Wunderground v.1.15,2013-03-30 22:30:00,
2013-03-30 18:35:00,42.0,13.5,29.75,NNW,346,5.0,6.0,31,0.00,,,0.00,Wunderground v.1.15,2013-03-30 22:35:00,
2013-03-30 18:40:00,41.7,14.0,29.75,NNW,335,5.0,5.0,32,0.00,,,0.00,Wunderground v.1.15,2013-03-30 22:40:00,
2013-03-30 18:45:00,41.3,12.9,29.75,NW,315,5.0,5.0,31,0.00,,,0.00,Wunderground v.1.15,2013-03-30 22:45:00,
2013-03-30 18:55:00,40.7,13.1,29.76,NW,310,3.0,3.0,32,0.00,,,0.00,Wunderground v.1.15,2013-03-30 22:55:00,
2013-03-30 19:00:00,40.4,12.8,29.76,NNW,333,3.0,3.0,32,0.00,,,0.00,Wunderground v.1.15,2013-03-30 23:00:00,
2013-03-30 19:05:00,40.3,13.4,29.76,NNW,340,3.0,3.0,33,0.00,,,0.00,Wunderground v.1.15,2013-03-30 23:05:00,
2013-03-30 19:10:00,40.1,12.6,29.76,NNW,336,2.0,2.0,32,0.00,,,0.00,Wunderground v.1.15,2013-03-30 23:10:00,
2013-03-30 19:20:00,39.3,14.5,29.76,NNW,336,2.0,2.0,36,0.00,,,0.00,Wunderground v.1.15,2013-03-30 23:20:00,
2013-03-30 19:25:00,38.9,14.2,29.76,NNW,336,2.0,3.0,36,0.00,,,0.00,Wunderground v.1.15,2013-03-30 23:25:00,
2013-03-30 19:30:00,38.7,13.4,29.76,NNW,336,2.0,2.0,35,0.00,,,0.00,Wunderground v.1.15,2013-03-30 23:30:00,
2013-03-30 19:35:00,38.5,13.2,29.76,NNW,336,2.0,2.0,35,0.00,,,0.00,Wunderground v.1.15,2013-03-30 23:35:00,
2013-03-30 19:40:00,38.3,13.0,29.76,NNW,336,2.0,2.0,35,0.00,,,0.00,Wunderground v.1.15,2013-03-30 23:40:00,
2013-03-30 19:50:00,38.0,12.1,29.77,NNW,336,1.0,1.0,34,0.00,,,0.00,Wunderground v.1.15,2013-03-30 23:50:00,
2013-03-30 20:00:00,38.2,12.3,29.77,NNW,335,1.0,1.0,34,0.00,,,0.00,Wunderground v.1.15,2013-03-31 00:00:00,
2013-03-30 20:05:00,38.2,12.3,29.77,NNW,336,2.0,2.0,34,0.00,,,0.00,Wunderground v.1.15,2013-03-31 00:05:00,
2013-03-30 20:15:00,37.9,12.6,29.77,NW,326,1.0,1.0,35,0.00,,,0.00,Wunderground v.1.15,2013-03-31 00:15:00,
2013-03-30 20:25:00,37.0,13.1,29.78,NW,309,2.0,3.0,37,0.00,,,0.00,Wunderground v.1.15,2013-03-31 00:25:00,
2013-03-30 20:30:00,37.2,12.7,29.78,NW,307,3.0,3.0,36,0.00,,,0.00,Wunderground v.1.15,2013-03-31 00:30:00,
2013-03-30 20:40:00,37.5,12.3,29.78,NW,305,3.0,3.0,35,0.00,,,0.00,Wunderground v.1.15,2013-03-31 00:40:00,
2013-03-30 20:50:00,37.6,13.0,29.78,WNW,292,3.0,4.0,36,0.00,,,0.00,Wunderground v.1.15,2013-03-31 00:50:00,
2013-03-30 20:55:00,37.4,12.2,29.78,WNW,301,3.0,4.0,35,0.00,,,0.00,Wunderground v.1.15,2013-03-31 00:55:00,
2013-03-30 21:00:00,37.3,14.0,29.78,WNW,298,3.0,5.0,38,0.00,,,0.00,Wunderground v.1.15,2013-03-31 01:00:00,
2013-03-30 21:10:00,37.1,13.2,29.78,NW,312,3.0,3.0,37,0.00,,,0.00,Wunderground v.1.15,2013-03-31 01:10:00,
2013-03-30 21:20:00,36.5,13.3,29.78,WNW,302,2.0,2.0,38,0.00,,,0.00,Wunderground v.1.15,2013-03-31 01:20:00,
2013-03-30 21:25:00,36.3,13.7,29.78,WNW,301,2.0,2.0,39,0.00,,,0.00,Wunderground v.1.15,2013-03-31 01:25:00,
2013-03-30 21:30:00,36.2,13.6,29.78,WNW,301,2.0,3.0,39,0.00,,,0.00,Wunderground v.1.15,2013-03-31 01:30:00,
2013-03-30 21:35:00,36.3,14.3,29.78,NW,314,2.0,3.0,40,0.00,,,0.00,Wunderground v.1.15,2013-03-31 01:35:00,
2013-03-30 21:40:00,36.0,14.5,29.78,WNW,303,2.0,2.0,41,0.00,,,0.00,Wunderground v.1.15,2013-03-31 01:40:00,
2013-03-30 21:50:00,35.7,15.4,29.79,WNW,288,2.0,4.0,43,0.00,,,0.00,Wunderground v.1.15,2013-03-31 01:50:00,
2013-03-30 22:00:00,35.7,15.4,29.79,WNW,296,2.0,2.0,43,0.00,,,0.00,Wunderground v.1.15,2013-03-31 02:00:00,
2013-03-30 22:05:00,35.3,16.0,29.79,WNW,296,1.0,2.0,45,0.00,,,0.00,Wunderground v.1.15,2013-03-31 02:05:00,
2013-03-30 22:10:00,34.9,15.2,29.79,WNW,287,1.0,2.0,44,0.00,,,0.00,Wunderground v.1.15,2013-03-31 02:10:00,
2013-03-30 22:20:00,35.3,14.5,29.79,WNW,291,1.0,1.0,42,0.00,,,0.00,Wunderground v.1.15,2013-03-31 02:20:00,
2013-03-30 22:25:00,35.5,14.1,29.79,WNW,291,0.0,1.0,41,0.00,,,0.00,Wunderground v.1.15,2013-03-31 02:25:00,
2013-03-30 22:30:00,34.4,16.2,29.79,North,5,0.0,0.0,47,0.00,,,0.00,Wunderground v.1.15,2013-03-31 02:30:00,
2013-03-30 22:35:00,33.0,16.4,29.79,North,5,0.0,0.0,50,0.00,,,0.00,Wunderground v.1.15,2013-03-31 02:35:00,
2013-03-30 22:45:00,31.7,15.6,29.79,North,5,0.0,0.0,51,0.00,,,0.00,Wunderground v.1.15,2013-03-31 02:45:00,
2013-03-30 22:50:00,31.3,16.6,29.79,North,5,0.0,0.0,54,0.00,,,0.00,Wunderground v.1.15,2013-03-31 02:50:00,
2013-03-30 22:55:00,31.0,16.3,29.79,North,5,0.0,0.0,54,0.00,,,0.00,Wunderground v.1.15,2013-03-31 02:55:00,
2013-03-30 23:00:00,30.6,16.3,29.79,North,5,0.0,0.0,55,0.00,,,0.00,Wunderground v.1.15,2013-03-31 03:00:00,
2013-03-30 23:10:00,30.3,16.9,29.79,NW,322,1.0,2.0,57,0.00,,,0.00,Wunderground v.1.15,2013-03-31 03:10:00,
2013-03-30 23:15:00,30.3,16.5,29.79,WNW,297,1.0,2.0,56,0.00,,,0.00,Wunderground v.1.15,2013-03-31 03:15:00,
2013-03-30 23:20:00,30.6,15.9,29.79,WNW,292,1.0,1.0,54,0.00,,,0.00,Wunderground v.1.15,2013-03-31 03:20:00,
2013-03-30 23:30:00,30.5,16.2,29.79,WNW,292,0.0,0.0,55,0.00,,,0.00,Wunderground v.1.15,2013-03-31 03:30:00,
2013-03-30 23:35:00,30.3,16.0,29.79,WNW,292,0.0,0.0,55,0.00,,,0.00,Wunderground v.1.15,2013-03-31 03:35:00,
2013-03-30 23:45:00,30.0,16.2,29.79,WNW,292,0.0,0.0,56,0.00,,,0.00,Wunderground v.1.15,2013-03-31 03:45:00,
2013-03-30 23:55:00,29.7,15.9,29.79,WNW,292,0.0,0.0,56,0.00,,,0.00,Wunderground v.1.15,2013-03-31 03:55:00,